sensor_id;sensor_type;location;lat;lon;timestamp;P1;durP1;ratioP1;P2;durP2;ratioP2
63688;SDS011;54895;40.928;14.480;2024-01-07T00:02:08;46.22;;;32.88;;
63688;SDS011;54895;40.928;14.480;2024-01-07T00:04:34;47.47;;;33.67;;
63688;SDS011;54895;40.928;14.480;2024-01-07T00:07:00;46.97;;;30.70;;
63688;SDS011;54895;40.928;14.480;2024-01-07T00:09:27;46.00;;;31.27;;
63688;SDS011;54895;40.928;14.480;2024-01-07T00:11:53;46.58;;;33.45;;
63688;SDS011;54895;40.928;14.480;2024-01-07T00:14:20;45.08;;;32.22;;
63688;SDS011;54895;40.928;14.480;2024-01-07T00:16:47;43.25;;;31.23;;
63688;SDS011;54895;40.928;14.480;2024-01-07T00:23:06;50.38;;;32.47;;
63688;SDS011;54895;40.928;14.480;2024-01-07T00:25:32;47.30;;;33.03;;
63688;SDS011;54895;40.928;14.480;2024-01-07T00:27:58;46.88;;;33.67;;
63688;SDS011;54895;40.928;14.480;2024-01-07T00:30:25;47.55;;;33.78;;
63688;SDS011;54895;40.928;14.480;2024-01-07T00:32:51;43.67;;;32.08;;
63688;SDS011;54895;40.928;14.480;2024-01-07T00:35:17;45.38;;;32.03;;
63688;SDS011;54895;40.928;14.480;2024-01-07T00:37:45;45.00;;;30.90;;
63688;SDS011;54895;40.928;14.480;2024-01-07T00:40:12;41.20;;;30.48;;
63688;SDS011;54895;40.928;14.480;2024-01-07T00:42:38;40.33;;;30.48;;
63688;SDS011;54895;40.928;14.480;2024-01-07T00:45:04;42.47;;;30.38;;
63688;SDS011;54895;40.928;14.480;2024-01-07T00:47:31;40.00;;;27.52;;
63688;SDS011;54895;40.928;14.480;2024-01-07T00:49:57;36.70;;;27.25;;
63688;SDS011;54895;40.928;14.480;2024-01-07T00:52:24;36.25;;;25.33;;
63688;SDS011;54895;40.928;14.480;2024-01-07T00:54:50;31.42;;;22.83;;
63688;SDS011;54895;40.928;14.480;2024-01-07T00:57:16;33.47;;;23.73;;
63688;SDS011;54895;40.928;14.480;2024-01-07T00:59:42;34.67;;;24.00;;
63688;SDS011;54895;40.928;14.480;2024-01-07T01:02:09;35.53;;;23.58;;
63688;SDS011;54895;40.928;14.480;2024-01-07T01:04:37;36.05;;;23.70;;
63688;SDS011;54895;40.928;14.480;2024-01-07T01:07:04;34.88;;;23.40;;
63688;SDS011;54895;40.928;14.480;2024-01-07T01:09:31;32.70;;;21.25;;
63688;SDS011;54895;40.928;14.480;2024-01-07T01:11:57;28.83;;;19.58;;
63688;SDS011;54895;40.928;14.480;2024-01-07T01:14:23;27.38;;;19.73;;
63688;SDS011;54895;40.928;14.480;2024-01-07T01:16:49;28.52;;;19.33;;
63688;SDS011;54895;40.928;14.480;2024-01-07T01:23:16;30.10;;;18.20;;
63688;SDS011;54895;40.928;14.480;2024-01-07T01:25:42;23.35;;;16.70;;
63688;SDS011;54895;40.928;14.480;2024-01-07T01:28:09;25.90;;;18.25;;
63688;SDS011;54895;40.928;14.480;2024-01-07T01:30:36;28.17;;;18.35;;
63688;SDS011;54895;40.928;14.480;2024-01-07T01:33:02;29.23;;;18.50;;
63688;SDS011;54895;40.928;14.480;2024-01-07T01:35:28;28.20;;;19.65;;
63688;SDS011;54895;40.928;14.480;2024-01-07T01:37:54;26.83;;;18.80;;
63688;SDS011;54895;40.928;14.480;2024-01-07T01:40:21;26.92;;;18.55;;
63688;SDS011;54895;40.928;14.480;2024-01-07T01:42:47;25.20;;;18.90;;
63688;SDS011;54895;40.928;14.480;2024-01-07T01:45:14;27.45;;;18.15;;
63688;SDS011;54895;40.928;14.480;2024-01-07T01:47:41;26.20;;;18.25;;
63688;SDS011;54895;40.928;14.480;2024-01-07T01:50:08;31.58;;;20.73;;
63688;SDS011;54895;40.928;14.480;2024-01-07T01:52:34;32.97;;;21.05;;
63688;SDS011;54895;40.928;14.480;2024-01-07T01:55:01;30.20;;;21.02;;
63688;SDS011;54895;40.928;14.480;2024-01-07T01:57:32;31.83;;;20.90;;
63688;SDS011;54895;40.928;14.480;2024-01-07T02:00:04;31.27;;;21.73;;
63688;SDS011;54895;40.928;14.480;2024-01-07T02:02:32;36.10;;;22.48;;
63688;SDS011;54895;40.928;14.480;2024-01-07T02:05:03;31.02;;;20.85;;
63688;SDS011;54895;40.928;14.480;2024-01-07T02:07:30;30.25;;;22.20;;
63688;SDS011;54895;40.928;14.480;2024-01-07T02:09:57;31.30;;;21.30;;
63688;SDS011;54895;40.928;14.480;2024-01-07T02:12:23;34.58;;;22.73;;
63688;SDS011;54895;40.928;14.480;2024-01-07T02:14:50;31.48;;;21.58;;
63688;SDS011;54895;40.928;14.480;2024-01-07T02:17:16;32.78;;;22.42;;
63688;SDS011;54895;40.928;14.480;2024-01-07T02:23:36;34.03;;;23.23;;
63688;SDS011;54895;40.928;14.480;2024-01-07T02:26:03;31.75;;;22.40;;
63688;SDS011;54895;40.928;14.480;2024-01-07T02:28:31;33.38;;;21.98;;
63688;SDS011;54895;40.928;14.480;2024-01-07T02:30:57;38.13;;;22.75;;
63688;SDS011;54895;40.928;14.480;2024-01-07T02:33:23;32.00;;;22.42;;
63688;SDS011;54895;40.928;14.480;2024-01-07T02:35:50;29.52;;;21.02;;
63688;SDS011;54895;40.928;14.480;2024-01-07T02:38:16;30.52;;;21.13;;
63688;SDS011;54895;40.928;14.480;2024-01-07T02:40:42;30.08;;;22.15;;
63688;SDS011;54895;40.928;14.480;2024-01-07T02:43:09;36.17;;;23.75;;
63688;SDS011;54895;40.928;14.480;2024-01-07T02:45:35;35.25;;;24.27;;
63688;SDS011;54895;40.928;14.480;2024-01-07T02:48:01;34.13;;;23.45;;
63688;SDS011;54895;40.928;14.480;2024-01-07T02:50:28;36.33;;;23.20;;
63688;SDS011;54895;40.928;14.480;2024-01-07T02:52:54;29.92;;;22.92;;
63688;SDS011;54895;40.928;14.480;2024-01-07T02:55:20;33.47;;;23.58;;
63688;SDS011;54895;40.928;14.480;2024-01-07T02:57:47;29.75;;;21.75;;
63688;SDS011;54895;40.928;14.480;2024-01-07T03:00:13;34.65;;;24.33;;
63688;SDS011;54895;40.928;14.480;2024-01-07T03:02:39;33.03;;;22.88;;
63688;SDS011;54895;40.928;14.480;2024-01-07T03:05:06;32.13;;;23.13;;
63688;SDS011;54895;40.928;14.480;2024-01-07T03:07:33;33.33;;;23.48;;
63688;SDS011;54895;40.928;14.480;2024-01-07T03:09:59;33.80;;;22.98;;
63688;SDS011;54895;40.928;14.480;2024-01-07T03:12:25;35.72;;;24.23;;
63688;SDS011;54895;40.928;14.480;2024-01-07T03:14:51;40.42;;;28.95;;
63688;SDS011;54895;40.928;14.480;2024-01-07T03:17:17;42.60;;;27.23;;
63688;SDS011;54895;40.928;14.480;2024-01-07T03:23:36;41.50;;;27.23;;
63688;SDS011;54895;40.928;14.480;2024-01-07T03:26:02;37.45;;;25.60;;
63688;SDS011;54895;40.928;14.480;2024-01-07T03:28:28;34.00;;;24.90;;
63688;SDS011;54895;40.928;14.480;2024-01-07T03:30:54;36.97;;;27.73;;
63688;SDS011;54895;40.928;14.480;2024-01-07T03:33:21;39.10;;;26.10;;
63688;SDS011;54895;40.928;14.480;2024-01-07T03:35:47;36.05;;;25.63;;
63688;SDS011;54895;40.928;14.480;2024-01-07T03:38:13;34.90;;;24.85;;
63688;SDS011;54895;40.928;14.480;2024-01-07T03:40:40;39.55;;;26.75;;
63688;SDS011;54895;40.928;14.480;2024-01-07T03:43:06;34.53;;;23.38;;
63688;SDS011;54895;40.928;14.480;2024-01-07T03:45:32;36.08;;;24.42;;
63688;SDS011;54895;40.928;14.480;2024-01-07T03:47:59;35.88;;;25.75;;
63688;SDS011;54895;40.928;14.480;2024-01-07T03:50:25;36.72;;;25.17;;
63688;SDS011;54895;40.928;14.480;2024-01-07T03:52:52;35.65;;;25.42;;
63688;SDS011;54895;40.928;14.480;2024-01-07T03:55:19;35.13;;;24.17;;
63688;SDS011;54895;40.928;14.480;2024-01-07T03:57:45;34.33;;;23.92;;
63688;SDS011;54895;40.928;14.480;2024-01-07T04:00:12;38.00;;;24.85;;
63688;SDS011;54895;40.928;14.480;2024-01-07T04:02:38;32.22;;;21.85;;
63688;SDS011;54895;40.928;14.480;2024-01-07T04:05:05;31.95;;;22.30;;
63688;SDS011;54895;40.928;14.480;2024-01-07T04:07:31;34.50;;;23.25;;
63688;SDS011;54895;40.928;14.480;2024-01-07T04:09:57;29.75;;;21.30;;
63688;SDS011;54895;40.928;14.480;2024-01-07T04:12:24;34.47;;;23.48;;
63688;SDS011;54895;40.928;14.480;2024-01-07T04:14:50;31.50;;;23.35;;
63688;SDS011;54895;40.928;14.480;2024-01-07T04:17:16;36.30;;;25.67;;
63688;SDS011;54895;40.928;14.480;2024-01-07T04:23:34;34.30;;;23.58;;
63688;SDS011;54895;40.928;14.480;2024-01-07T04:26:00;33.65;;;22.60;;
63688;SDS011;54895;40.928;14.480;2024-01-07T04:28:26;31.25;;;21.75;;
63688;SDS011;54895;40.928;14.480;2024-01-07T04:30:53;31.33;;;21.33;;
63688;SDS011;54895;40.928;14.480;2024-01-07T04:33:19;29.35;;;19.00;;
63688;SDS011;54895;40.928;14.480;2024-01-07T04:35:45;28.95;;;19.73;;
63688;SDS011;54895;40.928;14.480;2024-01-07T04:38:12;29.80;;;19.02;;
63688;SDS011;54895;40.928;14.480;2024-01-07T04:40:38;25.02;;;15.15;;
63688;SDS011;54895;40.928;14.480;2024-01-07T04:43:05;24.70;;;15.65;;
63688;SDS011;54895;40.928;14.480;2024-01-07T04:45:31;24.35;;;15.95;;
63688;SDS011;54895;40.928;14.480;2024-01-07T04:47:57;22.90;;;15.52;;
63688;SDS011;54895;40.928;14.480;2024-01-07T04:50:23;25.15;;;16.25;;
63688;SDS011;54895;40.928;14.480;2024-01-07T04:52:50;27.38;;;18.83;;
63688;SDS011;54895;40.928;14.480;2024-01-07T04:55:16;30.80;;;18.63;;
63688;SDS011;54895;40.928;14.480;2024-01-07T04:57:43;31.40;;;19.25;;
63688;SDS011;54895;40.928;14.480;2024-01-07T05:00:10;28.33;;;20.30;;
63688;SDS011;54895;40.928;14.480;2024-01-07T05:02:36;35.45;;;22.38;;
63688;SDS011;54895;40.928;14.480;2024-01-07T05:05:03;37.78;;;24.40;;
63688;SDS011;54895;40.928;14.480;2024-01-07T05:07:30;36.45;;;24.83;;
63688;SDS011;54895;40.928;14.480;2024-01-07T05:09:56;39.25;;;27.20;;
63688;SDS011;54895;40.928;14.480;2024-01-07T05:12:22;36.05;;;26.00;;
63688;SDS011;54895;40.928;14.480;2024-01-07T05:14:50;36.25;;;25.67;;
63688;SDS011;54895;40.928;14.480;2024-01-07T05:17:19;36.42;;;26.15;;
63688;SDS011;54895;40.928;14.480;2024-01-07T05:23:30;34.70;;;24.25;;
63688;SDS011;54895;40.928;14.480;2024-01-07T05:25:56;33.13;;;21.92;;
63688;SDS011;54895;40.928;14.480;2024-01-07T05:28:25;33.67;;;22.63;;
63688;SDS011;54895;40.928;14.480;2024-01-07T05:30:52;30.20;;;21.27;;
63688;SDS011;54895;40.928;14.480;2024-01-07T05:33:18;32.40;;;23.30;;
63688;SDS011;54895;40.928;14.480;2024-01-07T05:35:44;28.77;;;21.10;;
63688;SDS011;54895;40.928;14.480;2024-01-07T05:38:11;29.55;;;21.20;;
63688;SDS011;54895;40.928;14.480;2024-01-07T05:40:38;34.38;;;23.58;;
63688;SDS011;54895;40.928;14.480;2024-01-07T05:43:06;30.38;;;21.23;;
63688;SDS011;54895;40.928;14.480;2024-01-07T05:45:33;32.95;;;21.23;;
63688;SDS011;54895;40.928;14.480;2024-01-07T05:47:59;31.95;;;21.80;;
63688;SDS011;54895;40.928;14.480;2024-01-07T05:50:28;31.27;;;21.63;;
63688;SDS011;54895;40.928;14.480;2024-01-07T05:52:55;29.10;;;21.45;;
63688;SDS011;54895;40.928;14.480;2024-01-07T05:55:21;30.02;;;22.27;;
63688;SDS011;54895;40.928;14.480;2024-01-07T05:57:48;34.00;;;23.98;;
63688;SDS011;54895;40.928;14.480;2024-01-07T06:00:15;38.75;;;27.70;;
63688;SDS011;54895;40.928;14.480;2024-01-07T06:02:42;35.88;;;25.63;;
63688;SDS011;54895;40.928;14.480;2024-01-07T06:05:08;41.90;;;29.15;;
63688;SDS011;54895;40.928;14.480;2024-01-07T06:07:34;39.42;;;28.02;;
63688;SDS011;54895;40.928;14.480;2024-01-07T06:10:01;48.33;;;31.48;;
63688;SDS011;54895;40.928;14.480;2024-01-07T06:12:28;41.63;;;26.95;;
63688;SDS011;54895;40.928;14.480;2024-01-07T06:14:54;42.38;;;27.20;;
63688;SDS011;54895;40.928;14.480;2024-01-07T06:17:22;53.22;;;35.30;;
63688;SDS011;54895;40.928;14.480;2024-01-07T06:23:48;45.00;;;31.27;;
63688;SDS011;54895;40.928;14.480;2024-01-07T06:26:14;41.65;;;29.40;;
63688;SDS011;54895;40.928;14.480;2024-01-07T06:28:41;45.75;;;31.92;;
63688;SDS011;54895;40.928;14.480;2024-01-07T06:31:07;46.92;;;31.85;;
63688;SDS011;54895;40.928;14.480;2024-01-07T06:33:34;48.38;;;31.35;;
63688;SDS011;54895;40.928;14.480;2024-01-07T06:36:00;44.78;;;30.85;;
63688;SDS011;54895;40.928;14.480;2024-01-07T06:38:27;46.53;;;30.95;;
63688;SDS011;54895;40.928;14.480;2024-01-07T06:40:53;54.00;;;33.88;;
63688;SDS011;54895;40.928;14.480;2024-01-07T06:43:27;44.92;;;29.25;;
63688;SDS011;54895;40.928;14.480;2024-01-07T06:45:53;36.58;;;27.45;;
63688;SDS011;54895;40.928;14.480;2024-01-07T06:48:20;41.75;;;27.42;;
63688;SDS011;54895;40.928;14.480;2024-01-07T06:50:46;39.20;;;26.45;;
63688;SDS011;54895;40.928;14.480;2024-01-07T06:53:12;46.13;;;29.30;;
63688;SDS011;54895;40.928;14.480;2024-01-07T06:55:39;42.63;;;27.98;;
63688;SDS011;54895;40.928;14.480;2024-01-07T06:58:05;38.28;;;26.13;;
63688;SDS011;54895;40.928;14.480;2024-01-07T07:00:31;44.88;;;28.67;;
63688;SDS011;54895;40.928;14.480;2024-01-07T07:02:58;39.45;;;24.70;;
63688;SDS011;54895;40.928;14.480;2024-01-07T07:05:24;39.13;;;23.35;;
63688;SDS011;54895;40.928;14.480;2024-01-07T07:07:50;30.52;;;18.10;;
63688;SDS011;54895;40.928;14.480;2024-01-07T07:10:17;27.13;;;16.75;;
63688;SDS011;54895;40.928;14.480;2024-01-07T07:12:43;26.00;;;15.68;;
63688;SDS011;54895;40.928;14.480;2024-01-07T07:15:10;25.65;;;14.38;;
63688;SDS011;54895;40.928;14.480;2024-01-07T07:17:38;22.13;;;13.38;;
63688;SDS011;54895;40.928;14.480;2024-01-07T07:23:55;25.25;;;13.30;;
63688;SDS011;54895;40.928;14.480;2024-01-07T07:26:22;19.35;;;12.35;;
63688;SDS011;54895;40.928;14.480;2024-01-07T07:28:49;17.20;;;11.57;;
63688;SDS011;54895;40.928;14.480;2024-01-07T07:31:15;23.25;;;12.30;;
63688;SDS011;54895;40.928;14.480;2024-01-07T07:33:41;23.52;;;13.68;;
63688;SDS011;54895;40.928;14.480;2024-01-07T07:36:07;23.38;;;13.10;;
63688;SDS011;54895;40.928;14.480;2024-01-07T07:38:34;16.38;;;9.43;;
63688;SDS011;54895;40.928;14.480;2024-01-07T07:41:00;20.33;;;12.23;;
63688;SDS011;54895;40.928;14.480;2024-01-07T07:43:26;18.55;;;8.70;;
63688;SDS011;54895;40.928;14.480;2024-01-07T07:45:53;24.83;;;13.45;;
63688;SDS011;54895;40.928;14.480;2024-01-07T07:48:19;22.35;;;13.20;;
63688;SDS011;54895;40.928;14.480;2024-01-07T07:50:45;17.83;;;10.57;;
63688;SDS011;54895;40.928;14.480;2024-01-07T07:53:12;16.08;;;9.95;;
63688;SDS011;54895;40.928;14.480;2024-01-07T07:55:38;13.18;;;9.15;;
63688;SDS011;54895;40.928;14.480;2024-01-07T07:58:04;11.77;;;7.35;;
63688;SDS011;54895;40.928;14.480;2024-01-07T08:00:30;13.65;;;9.15;;
63688;SDS011;54895;40.928;14.480;2024-01-07T08:02:57;14.70;;;8.45;;
63688;SDS011;54895;40.928;14.480;2024-01-07T08:05:23;18.13;;;10.15;;
63688;SDS011;54895;40.928;14.480;2024-01-07T08:07:49;21.08;;;11.80;;
63688;SDS011;54895;40.928;14.480;2024-01-07T08:10:16;19.05;;;12.35;;
63688;SDS011;54895;40.928;14.480;2024-01-07T08:12:42;18.95;;;11.95;;
63688;SDS011;54895;40.928;14.480;2024-01-07T08:15:08;21.00;;;11.05;;
63688;SDS011;54895;40.928;14.480;2024-01-07T08:17:35;19.40;;;12.23;;
63688;SDS011;54895;40.928;14.480;2024-01-07T08:24:02;17.73;;;10.52;;
63688;SDS011;54895;40.928;14.480;2024-01-07T08:26:30;17.35;;;10.63;;
63688;SDS011;54895;40.928;14.480;2024-01-07T08:28:57;17.23;;;10.40;;
63688;SDS011;54895;40.928;14.480;2024-01-07T08:31:24;15.15;;;8.25;;
63688;SDS011;54895;40.928;14.480;2024-01-07T08:33:50;14.68;;;9.10;;
63688;SDS011;54895;40.928;14.480;2024-01-07T08:36:16;20.95;;;11.90;;
63688;SDS011;54895;40.928;14.480;2024-01-07T08:38:43;24.70;;;15.27;;
63688;SDS011;54895;40.928;14.480;2024-01-07T08:41:09;21.42;;;11.77;;
63688;SDS011;54895;40.928;14.480;2024-01-07T08:43:35;21.23;;;11.55;;
63688;SDS011;54895;40.928;14.480;2024-01-07T08:46:03;20.25;;;12.82;;
63688;SDS011;54895;40.928;14.480;2024-01-07T08:48:30;20.13;;;13.43;;
63688;SDS011;54895;40.928;14.480;2024-01-07T08:50:56;23.30;;;12.23;;
63688;SDS011;54895;40.928;14.480;2024-01-07T08:53:23;22.48;;;12.55;;
63688;SDS011;54895;40.928;14.480;2024-01-07T08:55:49;20.95;;;13.90;;
63688;SDS011;54895;40.928;14.480;2024-01-07T08:58:16;25.70;;;16.25;;
63688;SDS011;54895;40.928;14.480;2024-01-07T09:00:43;24.27;;;15.05;;
63688;SDS011;54895;40.928;14.480;2024-01-07T09:03:10;20.45;;;13.70;;
63688;SDS011;54895;40.928;14.480;2024-01-07T09:05:36;19.95;;;12.63;;
63688;SDS011;54895;40.928;14.480;2024-01-07T09:08:03;19.67;;;13.80;;
63688;SDS011;54895;40.928;14.480;2024-01-07T09:10:29;15.75;;;9.43;;
63688;SDS011;54895;40.928;14.480;2024-01-07T09:12:56;12.48;;;6.35;;
63688;SDS011;54895;40.928;14.480;2024-01-07T09:15:22;16.02;;;8.35;;
63688;SDS011;54895;40.928;14.480;2024-01-07T09:17:48;12.40;;;7.38;;
63688;SDS011;54895;40.928;14.480;2024-01-07T09:24:20;13.52;;;7.07;;
63688;SDS011;54895;40.928;14.480;2024-01-07T09:26:46;14.50;;;7.13;;
63688;SDS011;54895;40.928;14.480;2024-01-07T09:29:15;11.95;;;6.22;;
63688;SDS011;54895;40.928;14.480;2024-01-07T09:31:41;14.25;;;6.03;;
63688;SDS011;54895;40.928;14.480;2024-01-07T09:34:08;14.20;;;5.55;;
63688;SDS011;54895;40.928;14.480;2024-01-07T09:36:34;13.55;;;4.38;;
63688;SDS011;54895;40.928;14.480;2024-01-07T09:39:02;12.48;;;3.47;;
63688;SDS011;54895;40.928;14.480;2024-01-07T09:41:30;8.55;;;2.60;;
63688;SDS011;54895;40.928;14.480;2024-01-07T09:43:57;10.48;;;3.30;;
63688;SDS011;54895;40.928;14.480;2024-01-07T09:46:24;15.13;;;3.30;;
63688;SDS011;54895;40.928;14.480;2024-01-07T09:48:53;7.28;;;2.45;;
63688;SDS011;54895;40.928;14.480;2024-01-07T09:51:21;4.70;;;1.80;;
63688;SDS011;54895;40.928;14.480;2024-01-07T09:53:48;8.80;;;2.58;;
63688;SDS011;54895;40.928;14.480;2024-01-07T09:56:26;7.53;;;1.65;;
63688;SDS011;54895;40.928;14.480;2024-01-07T09:58:57;8.43;;;2.55;;
63688;SDS011;54895;40.928;14.480;2024-01-07T10:01:23;12.90;;;2.65;;
63688;SDS011;54895;40.928;14.480;2024-01-07T10:03:51;9.05;;;2.15;;
63688;SDS011;54895;40.928;14.480;2024-01-07T10:06:18;10.45;;;2.28;;
63688;SDS011;54895;40.928;14.480;2024-01-07T10:08:46;10.95;;;3.00;;
63688;SDS011;54895;40.928;14.480;2024-01-07T10:11:13;14.63;;;3.35;;
63688;SDS011;54895;40.928;14.480;2024-01-07T10:13:40;16.38;;;3.70;;
63688;SDS011;54895;40.928;14.480;2024-01-07T10:16:07;11.15;;;2.75;;
63688;SDS011;54895;40.928;14.480;2024-01-07T10:18:34;11.68;;;3.28;;
63688;SDS011;54895;40.928;14.480;2024-01-07T10:24:37;7.32;;;2.50;;
63688;SDS011;54895;40.928;14.480;2024-01-07T10:27:06;15.18;;;3.60;;
63688;SDS011;54895;40.928;14.480;2024-01-07T10:29:33;15.15;;;3.35;;
63688;SDS011;54895;40.928;14.480;2024-01-07T10:32:01;12.68;;;4.05;;
63688;SDS011;54895;40.928;14.480;2024-01-07T10:34:30;17.02;;;3.00;;
63688;SDS011;54895;40.928;14.480;2024-01-07T10:37:01;11.00;;;2.88;;
63688;SDS011;54895;40.928;14.480;2024-01-07T10:39:28;14.82;;;3.10;;
63688;SDS011;54895;40.928;14.480;2024-01-07T10:41:56;10.48;;;2.83;;
63688;SDS011;54895;40.928;14.480;2024-01-07T10:44:27;9.88;;;3.17;;
63688;SDS011;54895;40.928;14.480;2024-01-07T10:46:56;12.02;;;4.00;;
63688;SDS011;54895;40.928;14.480;2024-01-07T10:49:23;21.50;;;5.28;;
63688;SDS011;54895;40.928;14.480;2024-01-07T10:52:12;20.33;;;5.40;;
63688;SDS011;54895;40.928;14.480;2024-01-07T10:54:38;12.32;;;4.03;;
63688;SDS011;54895;40.928;14.480;2024-01-07T10:59:32;15.25;;;5.63;;
63688;SDS011;54895;40.928;14.480;2024-01-07T11:01:59;13.82;;;3.95;;
63688;SDS011;54895;40.928;14.480;2024-01-07T11:04:29;15.13;;;3.90;;
63688;SDS011;54895;40.928;14.480;2024-01-07T11:12:05;17.95;;;5.93;;
63688;SDS011;54895;40.928;14.480;2024-01-07T11:14:38;17.67;;;3.92;;
63688;SDS011;54895;40.928;14.480;2024-01-07T11:17:08;11.63;;;4.25;;
63688;SDS011;54895;40.928;14.480;2024-01-07T11:19:36;15.40;;;4.95;;
63688;SDS011;54895;40.928;14.480;2024-01-07T11:25:28;17.65;;;8.18;;
63688;SDS011;54895;40.928;14.480;2024-01-07T11:27:57;18.00;;;6.40;;
63688;SDS011;54895;40.928;14.480;2024-01-07T11:30:24;17.15;;;5.60;;
63688;SDS011;54895;40.928;14.480;2024-01-07T11:32:56;13.57;;;4.75;;
63688;SDS011;54895;40.928;14.480;2024-01-07T11:38:28;15.25;;;4.63;;
63688;SDS011;54895;40.928;14.480;2024-01-07T11:40:54;17.67;;;4.82;;
63688;SDS011;54895;40.928;14.480;2024-01-07T11:43:22;19.38;;;4.90;;
63688;SDS011;54895;40.928;14.480;2024-01-07T11:45:52;15.88;;;3.58;;
63688;SDS011;54895;40.928;14.480;2024-01-07T11:48:20;20.80;;;5.10;;
63688;SDS011;54895;40.928;14.480;2024-01-07T11:50:46;15.52;;;3.72;;
63688;SDS011;54895;40.928;14.480;2024-01-07T11:53:13;11.77;;;3.38;;
63688;SDS011;54895;40.928;14.480;2024-01-07T11:55:44;13.63;;;3.90;;
63688;SDS011;54895;40.928;14.480;2024-01-07T11:58:11;10.18;;;3.28;;
63688;SDS011;54895;40.928;14.480;2024-01-07T12:00:37;7.75;;;2.10;;
63688;SDS011;54895;40.928;14.480;2024-01-07T12:03:04;6.40;;;1.70;;
63688;SDS011;54895;40.928;14.480;2024-01-07T12:05:31;12.60;;;2.85;;
63688;SDS011;54895;40.928;14.480;2024-01-07T12:08:00;12.95;;;3.30;;
63688;SDS011;54895;40.928;14.480;2024-01-07T12:10:26;10.65;;;3.80;;
63688;SDS011;54895;40.928;14.480;2024-01-07T12:12:53;13.52;;;4.05;;
63688;SDS011;54895;40.928;14.480;2024-01-07T12:15:23;14.30;;;3.90;;
63688;SDS011;54895;40.928;14.480;2024-01-07T12:17:57;9.38;;;3.70;;
63688;SDS011;54895;40.928;14.480;2024-01-07T12:20:25;11.27;;;4.15;;
63688;SDS011;54895;40.928;14.480;2024-01-07T12:22:57;11.68;;;3.95;;
63688;SDS011;54895;40.928;14.480;2024-01-07T12:25:25;14.35;;;5.13;;
63688;SDS011;54895;40.928;14.480;2024-01-07T12:27:53;9.82;;;4.53;;
63688;SDS011;54895;40.928;14.480;2024-01-07T12:30:24;11.25;;;4.30;;
63688;SDS011;54895;40.928;14.480;2024-01-07T12:32:57;15.40;;;5.50;;
63688;SDS011;54895;40.928;14.480;2024-01-07T12:35:27;15.18;;;4.13;;
63688;SDS011;54895;40.928;14.480;2024-01-07T12:37:54;15.85;;;5.78;;
63688;SDS011;54895;40.928;14.480;2024-01-07T12:40:22;15.48;;;5.90;;
63688;SDS011;54895;40.928;14.480;2024-01-07T12:42:50;13.77;;;4.18;;
63688;SDS011;54895;40.928;14.480;2024-01-07T12:45:16;9.70;;;4.22;;
63688;SDS011;54895;40.928;14.480;2024-01-07T12:47:43;15.85;;;4.30;;
63688;SDS011;54895;40.928;14.480;2024-01-07T12:50:09;14.90;;;4.93;;
63688;SDS011;54895;40.928;14.480;2024-01-07T12:52:39;10.68;;;4.65;;
63688;SDS011;54895;40.928;14.480;2024-01-07T12:55:09;15.73;;;5.70;;
63688;SDS011;54895;40.928;14.480;2024-01-07T12:57:35;14.27;;;5.85;;
63688;SDS011;54895;40.928;14.480;2024-01-07T13:00:03;14.90;;;4.70;;
63688;SDS011;54895;40.928;14.480;2024-01-07T13:02:33;12.55;;;4.55;;
63688;SDS011;54895;40.928;14.480;2024-01-07T13:05:00;10.00;;;3.55;;
63688;SDS011;54895;40.928;14.480;2024-01-07T13:07:26;12.13;;;2.92;;
63688;SDS011;54895;40.928;14.480;2024-01-07T13:09:54;8.55;;;2.35;;
63688;SDS011;54895;40.928;14.480;2024-01-07T13:12:20;9.20;;;2.95;;
63688;SDS011;54895;40.928;14.480;2024-01-07T13:14:49;11.00;;;3.38;;
63688;SDS011;54895;40.928;14.480;2024-01-07T13:17:15;9.82;;;2.70;;
63688;SDS011;54895;40.928;14.480;2024-01-07T13:19:42;9.30;;;3.60;;
63688;SDS011;54895;40.928;14.480;2024-01-07T13:22:08;7.55;;;3.00;;
63688;SDS011;54895;40.928;14.480;2024-01-07T13:24:35;7.53;;;3.00;;
63688;SDS011;54895;40.928;14.480;2024-01-07T13:27:01;13.13;;;4.07;;
63688;SDS011;54895;40.928;14.480;2024-01-07T13:29:28;13.38;;;4.20;;
63688;SDS011;54895;40.928;14.480;2024-01-07T13:31:54;11.00;;;3.53;;
63688;SDS011;54895;40.928;14.480;2024-01-07T13:34:20;11.23;;;4.90;;
63688;SDS011;54895;40.928;14.480;2024-01-07T13:36:46;9.98;;;3.42;;
63688;SDS011;54895;40.928;14.480;2024-01-07T13:39:13;11.70;;;4.57;;
63688;SDS011;54895;40.928;14.480;2024-01-07T13:41:44;17.27;;;5.28;;
63688;SDS011;54895;40.928;14.480;2024-01-07T13:44:10;9.75;;;3.85;;
63688;SDS011;54895;40.928;14.480;2024-01-07T13:46:44;10.63;;;4.55;;
63688;SDS011;54895;40.928;14.480;2024-01-07T13:49:11;11.13;;;4.28;;
63688;SDS011;54895;40.928;14.480;2024-01-07T13:51:38;12.85;;;4.97;;
63688;SDS011;54895;40.928;14.480;2024-01-07T13:54:05;12.38;;;4.80;;
63688;SDS011;54895;40.928;14.480;2024-01-07T13:56:33;10.38;;;4.63;;
63688;SDS011;54895;40.928;14.480;2024-01-07T13:59:01;10.38;;;4.47;;
63688;SDS011;54895;40.928;14.480;2024-01-07T14:01:32;11.73;;;5.30;;
63688;SDS011;54895;40.928;14.480;2024-01-07T14:03:59;12.65;;;4.20;;
63688;SDS011;54895;40.928;14.480;2024-01-07T14:06:25;15.13;;;6.40;;
63688;SDS011;54895;40.928;14.480;2024-01-07T14:08:51;14.05;;;5.60;;
63688;SDS011;54895;40.928;14.480;2024-01-07T14:11:18;15.27;;;5.82;;
63688;SDS011;54895;40.928;14.480;2024-01-07T14:13:46;15.68;;;5.90;;
63688;SDS011;54895;40.928;14.480;2024-01-07T14:16:12;9.25;;;3.60;;
63688;SDS011;54895;40.928;14.480;2024-01-07T14:18:39;7.97;;;2.75;;
63688;SDS011;54895;40.928;14.480;2024-01-07T14:21:06;9.93;;;3.75;;
63688;SDS011;54895;40.928;14.480;2024-01-07T14:23:35;11.02;;;3.00;;
63688;SDS011;54895;40.928;14.480;2024-01-07T14:26:01;7.20;;;2.20;;
63688;SDS011;54895;40.928;14.480;2024-01-07T14:28:29;12.20;;;2.13;;
63688;SDS011;54895;40.928;14.480;2024-01-07T14:30:58;13.30;;;2.63;;
63688;SDS011;54895;40.928;14.480;2024-01-07T14:33:24;8.95;;;2.95;;
63688;SDS011;54895;40.928;14.480;2024-01-07T14:35:51;6.78;;;2.92;;
63688;SDS011;54895;40.928;14.480;2024-01-07T14:38:18;9.05;;;2.50;;
63688;SDS011;54895;40.928;14.480;2024-01-07T14:40:45;12.52;;;2.53;;
63688;SDS011;54895;40.928;14.480;2024-01-07T14:43:12;7.05;;;2.63;;
63688;SDS011;54895;40.928;14.480;2024-01-07T14:45:39;12.00;;;3.13;;
63688;SDS011;54895;40.928;14.480;2024-01-07T14:48:05;14.13;;;2.70;;
63688;SDS011;54895;40.928;14.480;2024-01-07T14:50:32;7.63;;;2.95;;
63688;SDS011;54895;40.928;14.480;2024-01-07T14:52:58;8.85;;;3.10;;
63688;SDS011;54895;40.928;14.480;2024-01-07T14:55:25;10.43;;;2.90;;
63688;SDS011;54895;40.928;14.480;2024-01-07T14:57:53;7.22;;;2.45;;
63688;SDS011;54895;40.928;14.480;2024-01-07T15:00:19;8.13;;;2.45;;
63688;SDS011;54895;40.928;14.480;2024-01-07T15:02:45;7.95;;;2.85;;
63688;SDS011;54895;40.928;14.480;2024-01-07T15:05:12;9.57;;;2.95;;
63688;SDS011;54895;40.928;14.480;2024-01-07T15:07:39;11.25;;;5.05;;
63688;SDS011;54895;40.928;14.480;2024-01-07T15:10:05;18.23;;;8.80;;
63688;SDS011;54895;40.928;14.480;2024-01-07T15:12:32;24.58;;;11.30;;